sensor_id;sensor_type;location;lat;lon;timestamp;pressure;altitude;pressure_sealevel;temperature;humidity
5877;BME280;2964;42.144;24.730;2024-01-27T00:01:43;142903.25;;;5.20;62.86
5877;BME280;2964;42.144;24.730;2024-01-27T00:04:10;142846.97;;;4.97;64.02
5877;BME280;2964;42.144;24.730;2024-01-27T00:06:38;142844.50;;;4.96;62.94
5877;BME280;2964;42.144;24.730;2024-01-27T00:09:05;142881.97;;;5.12;62.67
5877;BME280;2964;42.144;24.730;2024-01-27T00:11:32;142918.25;;;5.27;62.05
5877;BME280;2964;42.144;24.730;2024-01-27T00:13:58;142859.47;;;5.02;62.11
5877;BME280;2964;42.144;24.730;2024-01-27T00:16:25;142875.75;;;5.09;62.07
5877;BME280;2964;42.144;24.730;2024-01-27T00:18:52;142907.00;;;5.22;61.98
5877;BME280;2964;42.144;24.730;2024-01-27T00:21:19;142890.75;;;5.15;61.32
5877;BME280;2964;42.144;24.730;2024-01-27T00:23:47;142913.25;;;5.25;61.40
5877;BME280;2964;42.144;24.730;2024-01-27T00:26:13;142942.00;;;5.36;61.03
5877;BME280;2964;42.144;24.730;2024-01-27T00:28:40;142918.25;;;5.27;60.46
5877;BME280;2964;42.144;24.730;2024-01-27T00:31:07;142972.03;;;5.49;60.53
5877;BME280;2964;42.144;24.730;2024-01-27T00:33:33;142908.25;;;5.22;61.17
5877;BME280;2964;42.144;24.730;2024-01-27T00:36:01;142865.72;;;5.05;62.20
5877;BME280;2964;42.144;24.730;2024-01-27T00:38:28;142784.44;;;4.72;62.98
5877;BME280;2964;42.144;24.730;2024-01-27T00:40:56;142801.97;;;4.79;62.26
5877;BME280;2964;42.144;24.730;2024-01-27T00:43:22;142878.22;;;5.10;61.19
5877;BME280;2964;42.144;24.730;2024-01-27T00:45:49;142985.78;;;5.54;59.80
5877;BME280;2964;42.144;24.730;2024-01-27T00:48:16;142925.75;;;5.30;58.81
5877;BME280;2964;42.144;24.730;2024-01-27T00:50:43;142833.22;;;4.92;61.08
5877;BME280;2964;42.144;24.730;2024-01-27T00:53:10;142801.97;;;4.79;60.12
5877;BME280;2964;42.144;24.730;2024-01-27T00:55:37;142790.72;;;4.74;61.12
5877;BME280;2964;42.144;24.730;2024-01-27T00:58:06;142774.47;;;4.68;62.03
5877;BME280;2964;42.144;24.730;2024-01-27T01:00:33;142740.75;;;4.54;62.39
5877;BME280;2964;42.144;24.730;2024-01-27T01:03:00;142693.25;;;4.34;64.11
5877;BME280;2964;42.144;24.730;2024-01-27T01:05:27;142665.75;;;4.23;63.72
5877;BME280;2964;42.144;24.730;2024-01-27T01:07:54;142703.22;;;4.38;63.56
5877;BME280;2964;42.144;24.730;2024-01-27T01:10:20;142771.94;;;4.67;62.68
5877;BME280;2964;42.144;24.730;2024-01-27T01:12:47;142728.25;;;4.49;62.18
5877;BME280;2964;42.144;24.730;2024-01-27T01:15:15;142725.72;;;4.48;62.54
5877;BME280;2964;42.144;24.730;2024-01-27T01:17:42;142739.47;;;4.53;61.88
5877;BME280;2964;42.144;24.730;2024-01-27T01:20:09;142706.97;;;4.40;62.38
5877;BME280;2964;42.144;24.730;2024-01-27T01:22:36;142726.94;;;4.48;62.04
5877;BME280;2964;42.144;24.730;2024-01-27T01:25:04;142701.97;;;4.38;61.98
5877;BME280;2964;42.144;24.730;2024-01-27T01:27:30;142743.22;;;4.55;61.74
5877;BME280;2964;42.144;24.730;2024-01-27T01:29:57;142763.25;;;4.63;61.24
5877;BME280;2964;42.144;24.730;2024-01-27T01:32:25;142658.25;;;4.20;63.04
5877;BME280;2964;42.144;24.730;2024-01-27T01:34:52;142593.31;;;3.93;63.32
5877;BME280;2964;42.144;24.730;2024-01-27T01:37:18;142630.75;;;4.09;62.85
5877;BME280;2964;42.144;24.730;2024-01-27T01:39:45;142623.25;;;4.05;63.86
5877;BME280;2964;42.144;24.730;2024-01-27T01:42:12;142699.47;;;4.37;63.77
5877;BME280;2964;42.144;24.730;2024-01-27T01:44:38;142639.50;;;4.12;65.30
5877;BME280;2964;42.144;24.730;2024-01-27T01:47:05;142623.25;;;4.05;65.99
5877;BME280;2964;42.144;24.730;2024-01-27T01:49:36;142653.25;;;4.18;63.97
5877;BME280;2964;42.144;24.730;2024-01-27T01:52:04;142602.03;;;3.97;65.79
5877;BME280;2964;42.144;24.730;2024-01-27T01:54:31;142653.25;;;4.18;64.81
5877;BME280;2964;42.144;24.730;2024-01-27T01:56:58;142669.50;;;4.24;64.50
5877;BME280;2964;42.144;24.730;2024-01-27T01:59:25;142664.50;;;4.22;64.88
5877;BME280;2964;42.144;24.730;2024-01-27T02:01:53;142685.72;;;4.31;63.27
5877;BME280;2964;42.144;24.730;2024-01-27T02:04:19;142657.00;;;4.19;63.95
5877;BME280;2964;42.144;24.730;2024-01-27T02:06:47;142685.72;;;4.31;63.77
5877;BME280;2964;42.144;24.730;2024-01-27T02:09:14;142583.28;;;3.89;62.51
5877;BME280;2964;42.144;24.730;2024-01-27T02:11:41;142690.72;;;4.33;63.21
5877;BME280;2964;42.144;24.730;2024-01-27T02:14:07;142695.75;;;4.35;62.47
5877;BME280;2964;42.144;24.730;2024-01-27T02:16:34;142681.97;;;4.30;62.01
5877;BME280;2964;42.144;24.730;2024-01-27T02:19:01;142603.28;;;3.97;64.21
5877;BME280;2964;42.144;24.730;2024-01-27T02:21:28;142587.03;;;3.91;64.68
5877;BME280;2964;42.144;24.730;2024-01-27T02:23:56;142598.28;;;3.95;64.58
5877;BME280;2964;42.144;24.730;2024-01-27T02:26:24;142660.75;;;4.21;64.39
5877;BME280;2964;42.144;24.730;2024-01-27T02:28:50;142565.81;;;3.82;65.56
5877;BME280;2964;42.144;24.730;2024-01-27T02:31:17;142469.66;;;3.42;67.87
5877;BME280;2964;42.144;24.730;2024-01-27T02:33:44;142554.56;;;3.77;66.38
5877;BME280;2964;42.144;24.730;2024-01-27T02:36:10;142540.84;;;3.72;66.26
5877;BME280;2964;42.144;24.730;2024-01-27T02:38:37;142490.88;;;3.51;67.19
5877;BME280;2964;42.144;24.730;2024-01-27T02:41:05;142404.75;;;3.16;66.46
5877;BME280;2964;42.144;24.730;2024-01-27T02:43:33;142647.03;;;4.15;63.77
5877;BME280;2964;42.144;24.730;2024-01-27T02:45:59;142663.22;;;4.22;62.66
5877;BME280;2964;42.144;24.730;2024-01-27T02:48:26;142618.25;;;4.03;63.62
5877;BME280;2964;42.144;24.730;2024-01-27T02:50:53;142538.31;;;3.71;64.32
5877;BME280;2964;42.144;24.730;2024-01-27T02:53:19;142524.56;;;3.65;65.71
5877;BME280;2964;42.144;24.730;2024-01-27T02:55:46;142570.81;;;3.84;64.94
5877;BME280;2964;42.144;24.730;2024-01-27T02:58:13;142542.06;;;3.72;65.43
5877;BME280;2964;42.144;24.730;2024-01-27T03:00:41;142508.38;;;3.58;66.99
5877;BME280;2964;42.144;24.730;2024-01-27T03:03:07;142518.34;;;3.62;66.47
5877;BME280;2964;42.144;24.730;2024-01-27T03:05:34;142465.88;;;3.41;68.63
5877;BME280;2964;42.144;24.730;2024-01-27T03:08:00;142452.16;;;3.35;68.81
5877;BME280;2964;42.144;24.730;2024-01-27T03:10:27;142412.22;;;3.19;68.83
5877;BME280;2964;42.144;24.730;2024-01-27T03:12:54;142434.69;;;3.28;67.37
5877;BME280;2964;42.144;24.730;2024-01-27T03:15:21;142397.25;;;3.13;69.33
5877;BME280;2964;42.144;24.730;2024-01-27T03:17:49;142424.69;;;3.24;67.90
5877;BME280;2964;42.144;24.730;2024-01-27T03:20:15;142480.91;;;3.47;67.34
5877;BME280;2964;42.144;24.730;2024-01-27T03:22:42;142391.03;;;3.10;68.45
5877;BME280;2964;42.144;24.730;2024-01-27T03:25:09;142349.78;;;2.93;69.72
5877;BME280;2964;42.144;24.730;2024-01-27T03:27:36;142378.53;;;3.05;68.08
5877;BME280;2964;42.144;24.730;2024-01-27T03:30:04;142414.72;;;3.20;70.26
5877;BME280;2964;42.144;24.730;2024-01-27T03:32:31;142384.75;;;3.07;69.65
5877;BME280;2964;42.144;24.730;2024-01-27T03:34:59;142415.97;;;3.20;69.70
5877;BME280;2964;42.144;24.730;2024-01-27T03:37:26;142381.00;;;3.06;69.97
5877;BME280;2964;42.144;24.730;2024-01-27T03:39:53;142377.28;;;3.04;71.66
5877;BME280;2964;42.144;24.730;2024-01-27T03:42:20;142438.44;;;3.29;68.55
5877;BME280;2964;42.144;24.730;2024-01-27T03:44:46;142438.44;;;3.29;68.58
5877;BME280;2964;42.144;24.730;2024-01-27T03:47:14;142447.16;;;3.33;70.58
5877;BME280;2964;42.144;24.730;2024-01-27T03:49:40;142580.78;;;3.88;66.20
5877;BME280;2964;42.144;24.730;2024-01-27T03:52:09;142640.75;;;4.13;64.34
5877;BME280;2964;42.144;24.730;2024-01-27T03:54:37;142605.75;;;3.98;62.87
5877;BME280;2964;42.144;24.730;2024-01-27T03:57:04;142693.25;;;4.34;61.58
5877;BME280;2964;42.144;24.730;2024-01-27T03:59:31;142824.47;;;4.88;59.28
5877;BME280;2964;42.144;24.730;2024-01-27T04:01:58;142818.22;;;4.86;59.11
5877;BME280;2964;42.144;24.730;2024-01-27T04:04:24;142845.72;;;4.97;56.91
5877;BME280;2964;42.144;24.730;2024-01-27T04:06:51;142863.25;;;5.04;57.00
5877;BME280;2964;42.144;24.730;2024-01-27T04:09:19;142823.22;;;4.88;56.98
5877;BME280;2964;42.144;24.730;2024-01-27T04:11:46;142758.19;;;4.61;56.98
5877;BME280;2964;42.144;24.730;2024-01-27T04:14:13;142823.22;;;4.88;54.42
5877;BME280;2964;42.144;24.730;2024-01-27T04:16:39;142900.72;;;5.19;53.47
5877;BME280;2964;42.144;24.730;2024-01-27T04:19:06;142864.47;;;5.05;53.86
5877;BME280;2964;42.144;24.730;2024-01-27T04:21:33;142913.25;;;5.25;52.87
5877;BME280;2964;42.144;24.730;2024-01-27T04:23:59;142868.22;;;5.06;52.73
5877;BME280;2964;42.144;24.730;2024-01-27T04:26:27;142888.22;;;5.14;54.59
5877;BME280;2964;42.144;24.730;2024-01-27T04:28:54;142898.25;;;5.18;55.08
5877;BME280;2964;42.144;24.730;2024-01-27T04:31:21;142914.47;;;5.25;55.31
5877;BME280;2964;42.144;24.730;2024-01-27T04:33:47;142830.75;;;4.91;56.23
5877;BME280;2964;42.144;24.730;2024-01-27T04:36:14;142928.22;;;5.31;55.10
5877;BME280;2964;42.144;24.730;2024-01-27T04:38:43;142903.25;;;5.20;54.97
5877;BME280;2964;42.144;24.730;2024-01-27T04:41:10;142880.75;;;5.11;54.87
5877;BME280;2964;42.144;24.730;2024-01-27T04:43:38;142938.28;;;5.35;54.30
5877;BME280;2964;42.144;24.730;2024-01-27T04:46:05;142879.47;;;5.11;54.51
5877;BME280;2964;42.144;24.730;2024-01-27T04:48:32;142900.72;;;5.19;53.45
5877;BME280;2964;42.144;24.730;2024-01-27T04:50:59;142988.31;;;5.55;51.47
5877;BME280;2964;42.144;24.730;2024-01-27T04:53:26;143019.59;;;5.68;51.02
5877;BME280;2964;42.144;24.730;2024-01-27T04:55:52;143009.53;;;5.64;51.76
5877;BME280;2964;42.144;24.730;2024-01-27T04:58:19;143024.56;;;5.70;50.93
5877;BME280;2964;42.144;24.730;2024-01-27T05:00:47;143043.34;;;5.78;51.11
5877;BME280;2964;42.144;24.730;2024-01-27T05:03:14;143043.34;;;5.78;51.52
5877;BME280;2964;42.144;24.730;2024-01-27T05:05:41;142948.28;;;5.39;52.55
5877;BME280;2964;42.144;24.730;2024-01-27T05:08:08;142992.00;;;5.57;52.49
5877;BME280;2964;42.144;24.730;2024-01-27T05:10:35;143007.06;;;5.63;53.15
5877;BME280;2964;42.144;24.730;2024-01-27T05:13:01;142949.50;;;5.39;54.83
5877;BME280;2964;42.144;24.730;2024-01-27T05:15:28;142908.25;;;5.22;54.32
5877;BME280;2964;42.144;24.730;2024-01-27T05:17:56;142923.25;;;5.29;54.36
5877;BME280;2964;42.144;24.730;2024-01-27T05:20:23;142962.03;;;5.45;54.57
5877;BME280;2964;42.144;24.730;2024-01-27T05:22:50;142965.78;;;5.46;52.84
5877;BME280;2964;42.144;24.730;2024-01-27T05:25:16;142988.31;;;5.55;52.65
5877;BME280;2964;42.144;24.730;2024-01-27T05:27:43;143050.84;;;5.81;51.35
5877;BME280;2964;42.144;24.730;2024-01-27T05:30:10;143013.28;;;5.66;52.06
5877;BME280;2964;42.144;24.730;2024-01-27T05:32:37;143045.81;;;5.79;51.24
5877;BME280;2964;42.144;24.730;2024-01-27T05:35:06;143092.19;;;5.98;48.86
5877;BME280;2964;42.144;24.730;2024-01-27T05:37:33;143085.91;;;5.95;49.35
5877;BME280;2964;42.144;24.730;2024-01-27T05:40:00;143030.81;;;5.73;50.13
5877;BME280;2964;42.144;24.730;2024-01-27T05:42:27;143068.34;;;5.88;48.83
5877;BME280;2964;42.144;24.730;2024-01-27T05:44:54;143108.44;;;6.05;48.59
5877;BME280;2964;42.144;24.730;2024-01-27T05:47:21;143138.47;;;6.17;48.72
5877;BME280;2964;42.144;24.730;2024-01-27T05:49:47;143103.44;;;6.03;49.37
5877;BME280;2964;42.144;24.730;2024-01-27T05:52:15;143147.25;;;6.21;48.10
5877;BME280;2964;42.144;24.730;2024-01-27T05:54:42;143115.94;;;6.08;48.94
5877;BME280;2964;42.144;24.730;2024-01-27T05:57:09;143069.63;;;5.89;49.11
5877;BME280;2964;42.144;24.730;2024-01-27T05:59:35;143100.94;;;6.02;50.08
5877;BME280;2964;42.144;24.730;2024-01-27T06:02:02;143118.47;;;6.09;50.46
5877;BME280;2964;42.144;24.730;2024-01-27T06:04:29;143073.38;;;5.90;51.13
5877;BME280;2964;42.144;24.730;2024-01-27T06:06:56;143060.84;;;5.85;52.21
5877;BME280;2964;42.144;24.730;2024-01-27T06:09:24;143103.44;;;6.03;52.81
5877;BME280;2964;42.144;24.730;2024-01-27T06:11:51;143177.28;;;6.33;51.71
5877;BME280;2964;42.144;24.730;2024-01-27T06:14:18;143073.38;;;5.90;53.14
5877;BME280;2964;42.144;24.730;2024-01-27T06:16:44;143135.94;;;6.16;52.16
5877;BME280;2964;42.144;24.730;2024-01-27T06:19:11;143098.44;;;6.01;51.62
5877;BME280;2964;42.144;24.730;2024-01-27T06:21:38;143164.75;;;6.28;51.48
5877;BME280;2964;42.144;24.730;2024-01-27T06:24:05;143127.22;;;6.12;50.15
5877;BME280;2964;42.144;24.730;2024-01-27T06:26:33;143133.47;;;6.15;50.18
5877;BME280;2964;42.144;24.730;2024-01-27T06:29:00;143192.28;;;6.39;49.59
5877;BME280;2964;42.144;24.730;2024-01-27T06:31:27;143181.06;;;6.34;49.23
5877;BME280;2964;42.144;24.730;2024-01-27T06:33:54;143151.00;;;6.22;50.17
5877;BME280;2964;42.144;24.730;2024-01-27T06:36:21;143178.53;;;6.33;52.17
5877;BME280;2964;42.144;24.730;2024-01-27T06:38:50;143108.44;;;6.05;56.48
5877;BME280;2964;42.144;24.730;2024-01-27T06:41:16;143110.94;;;6.06;58.13
5877;BME280;2964;42.144;24.730;2024-01-27T06:43:45;143060.84;;;5.85;61.00
5877;BME280;2964;42.144;24.730;2024-01-27T06:46:11;143038.34;;;5.76;63.59
5877;BME280;2964;42.144;24.730;2024-01-27T06:48:38;143034.56;;;5.74;64.71
5877;BME280;2964;42.144;24.730;2024-01-27T06:51:05;142958.28;;;5.43;70.17
5877;BME280;2964;42.144;24.730;2024-01-27T06:53:32;142957.03;;;5.43;69.92
5877;BME280;2964;42.144;24.730;2024-01-27T06:55:59;142891.97;;;5.16;72.53
5877;BME280;2964;42.144;24.730;2024-01-27T06:58:25;142867.00;;;5.06;74.31
5877;BME280;2964;42.144;24.730;2024-01-27T07:00:53;142790.72;;;4.74;80.67
5877;BME280;2964;42.144;24.730;2024-01-27T07:03:20;142798.19;;;4.77;79.79
5877;BME280;2964;42.144;24.730;2024-01-27T07:05:47;142831.97;;;4.91;79.46
5877;BME280;2964;42.144;24.730;2024-01-27T07:08:13;142935.75;;;5.34;77.65
5877;BME280;2964;42.144;24.730;2024-01-27T07:10:40;142923.25;;;5.29;79.94
5877;BME280;2964;42.144;24.730;2024-01-27T07:13:08;142805.72;;;4.80;79.25
5877;BME280;2964;42.144;24.730;2024-01-27T07:15:35;142900.72;;;5.19;77.96
5877;BME280;2964;42.144;24.730;2024-01-27T07:18:04;142985.78;;;5.54;79.27
5877;BME280;2964;42.144;24.730;2024-01-27T07:20:33;142901.97;;;5.20;80.93
5877;BME280;2964;42.144;24.730;2024-01-27T07:22:59;142940.75;;;5.36;79.49
5877;BME280;2964;42.144;24.730;2024-01-27T07:25:26;142978.25;;;5.51;79.24
5877;BME280;2964;42.144;24.730;2024-01-27T07:27:53;143003.31;;;5.61;76.86
5877;BME280;2964;42.144;24.730;2024-01-27T07:30:20;143113.44;;;6.07;71.17
5877;BME280;2964;42.144;24.730;2024-01-27T07:32:47;143103.44;;;6.03;71.26
5877;BME280;2964;42.144;24.730;2024-01-27T07:35:15;143132.25;;;6.14;68.29
5877;BME280;2964;42.144;24.730;2024-01-27T07:37:42;143186.06;;;6.36;65.75
5877;BME280;2964;42.144;24.730;2024-01-27T07:40:09;143201.06;;;6.43;64.06
5877;BME280;2964;42.144;24.730;2024-01-27T07:42:36;143234.84;;;6.56;66.99
5877;BME280;2964;42.144;24.730;2024-01-27T07:45:04;143239.88;;;6.59;66.48
5877;BME280;2964;42.144;24.730;2024-01-27T07:47:31;143258.66;;;6.66;65.83
5877;BME280;2964;42.144;24.730;2024-01-27T07:49:57;143318.75;;;6.91;63.51
5877;BME280;2964;42.144;24.730;2024-01-27T07:52:25;143316.28;;;6.90;63.44
5877;BME280;2964;42.144;24.730;2024-01-27T07:54:52;143330.03;;;6.95;63.53
5877;BME280;2964;42.144;24.730;2024-01-27T07:57:20;143308.75;;;6.87;65.66
5877;BME280;2964;42.144;24.730;2024-01-27T07:59:47;143347.59;;;7.03;65.91
5877;BME280;2964;42.144;24.730;2024-01-27T08:02:14;143345.06;;;7.02;65.26
5877;BME280;2964;42.144;24.730;2024-01-27T08:04:40;143332.53;;;6.96;67.35
5877;BME280;2964;42.144;24.730;2024-01-27T08:07:07;143393.91;;;7.22;67.00
5877;BME280;2964;42.144;24.730;2024-01-27T08:09:36;143357.59;;;7.07;68.03
5877;BME280;2964;42.144;24.730;2024-01-27T08:12:04;143353.81;;;7.05;65.00
5877;BME280;2964;42.144;24.730;2024-01-27T08:14:32;143376.38;;;7.14;64.06
5877;BME280;2964;42.144;24.730;2024-01-27T08:17:00;143356.31;;;7.06;64.75
5877;BME280;2964;42.144;24.730;2024-01-27T08:19:28;143391.38;;;7.21;64.27
5877;BME280;2964;42.144;24.730;2024-01-27T08:21:55;143436.47;;;7.39;63.44
5877;BME280;2964;42.144;24.730;2024-01-27T08:24:22;143422.69;;;7.33;61.40
5877;BME280;2964;42.144;24.730;2024-01-27T08:26:50;143496.66;;;7.64;60.67
5877;BME280;2964;42.144;24.730;2024-01-27T08:29:17;143530.47;;;7.78;60.05
5877;BME280;2964;42.144;24.730;2024-01-27T08:31:44;143477.81;;;7.56;59.68
5877;BME280;2964;42.144;24.730;2024-01-27T08:34:10;143524.22;;;7.75;57.91
5877;BME280;2964;42.144;24.730;2024-01-27T08:36:39;143507.91;;;7.68;56.77
5877;BME280;2964;42.144;24.730;2024-01-27T08:39:06;143474.09;;;7.54;57.35
5877;BME280;2964;42.144;24.730;2024-01-27T08:41:34;143469.09;;;7.52;58.34
5877;BME280;2964;42.144;24.730;2024-01-27T08:44:02;143494.13;;;7.63;59.02
5877;BME280;2964;42.144;24.730;2024-01-27T08:46:29;143397.69;;;7.23;56.81
5877;BME280;2964;42.144;24.730;2024-01-27T08:48:55;143519.22;;;7.73;59.45
5877;BME280;2964;42.144;24.730;2024-01-27T08:51:22;143570.56;;;7.94;62.06
5877;BME280;2964;42.144;24.730;2024-01-27T08:53:49;143618.22;;;8.14;63.67
5877;BME280;2964;42.144;24.730;2024-01-27T08:56:16;143619.47;;;8.14;64.00
5877;BME280;2964;42.144;24.730;2024-01-27T08:58:43;143667.06;;;8.34;64.14
5877;BME280;2964;42.144;24.730;2024-01-27T09:01:11;143610.69;;;8.10;67.33
5877;BME280;2964;42.144;24.730;2024-01-27T09:03:40;143663.34;;;8.32;67.32
5877;BME280;2964;42.144;24.730;2024-01-27T09:06:07;143752.41;;;8.68;68.02
5877;BME280;2964;42.144;24.730;2024-01-27T09:08:34;143816.41;;;8.95;67.17
5877;BME280;2964;42.144;24.730;2024-01-27T09:11:01;144005.88;;;9.72;64.91
5877;BME280;2964;42.144;24.730;2024-01-27T09:13:28;144304.81;;;10.94;59.07
5877;BME280;2964;42.144;24.730;2024-01-27T09:15:56;144666.91;;;12.42;54.30
5877;BME280;2964;42.144;24.730;2024-01-27T09:18:24;144773.88;;;12.86;52.34
5877;BME280;2964;42.144;24.730;2024-01-27T09:20:51;144845.63;;;13.15;49.60
5877;BME280;2964;42.144;24.730;2024-01-27T09:23:18;144833.03;;;13.10;49.45
5877;BME280;2964;42.144;24.730;2024-01-27T09:25:47;145188.16;;;14.55;45.47
5877;BME280;2964;42.144;24.730;2024-01-27T09:28:13;145313.00;;;15.05;43.86
5877;BME280;2964;42.144;24.730;2024-01-27T09:30:41;145672.47;;;16.52;40.67
5877;BME280;2964;42.144;24.730;2024-01-27T09:33:08;145425.22;;;15.51;40.58
5877;BME280;2964;42.144;24.730;2024-01-27T09:35:36;145405.00;;;15.43;39.61
5877;BME280;2964;42.144;24.730;2024-01-27T09:38:03;145422.66;;;15.50;39.76
5877;BME280;2964;42.144;24.730;2024-01-27T09:40:30;145251.22;;;14.80;40.03
5877;BME280;2964;42.144;24.730;2024-01-27T09:42:59;145352.03;;;15.21;38.95
5877;BME280;2964;42.144;24.730;2024-01-27T09:45:26;145553.88;;;16.04;38.08
5877;BME280;2964;42.144;24.730;2024-01-27T09:47:54;145512.25;;;15.87;37.77
5877;BME280;2964;42.144;24.730;2024-01-27T09:50:22;145194.53;;;14.57;39.43
5877;BME280;2964;42.144;24.730;2024-01-27T09:52:51;145084.84;;;14.13;40.42
5877;BME280;2964;42.144;24.730;2024-01-27T09:55:18;145376.03;;;15.31;39.65
5877;BME280;2964;42.144;24.730;2024-01-27T09:57:45;145210.91;;;14.64;38.63
5877;BME280;2964;42.144;24.730;2024-01-27T10:00:12;144690.81;;;12.52;43.05
5877;BME280;2964;42.144;24.730;2024-01-27T10:02:43;144324.88;;;11.02;47.32
5877;BME280;2964;42.144;24.730;2024-01-27T10:05:13;144209.34;;;10.55;48.63
5877;BME280;2964;42.144;24.730;2024-01-27T10:07:40;144154.03;;;10.33;50.30
5877;BME280;2964;42.144;24.730;2024-01-27T10:10:08;144138.94;;;10.27;50.64
5877;BME280;2964;42.144;24.730;2024-01-27T10:12:40;144194.22;;;10.49;50.24
5877;BME280;2964;42.144;24.730;2024-01-27T10:15:18;144596.47;;;12.13;45.07
5877;BME280;2964;42.144;24.730;2024-01-27T10:17:45;144804.03;;;12.98;43.46
5877;BME280;2964;42.144;24.730;2024-01-27T10:20:12;144521.00;;;11.83;44.95
5877;BME280;2964;42.144;24.730;2024-01-27T10:22:41;144292.22;;;10.89;46.22
5877;BME280;2964;42.144;24.730;2024-01-27T10:25:09;144179.19;;;10.43;48.22
5877;BME280;2964;42.144;24.730;2024-01-27T10:27:36;144218.13;;;10.59;48.09
5877;BME280;2964;42.144;24.730;2024-01-27T10:30:04;144216.84;;;10.58;48.07
5877;BME280;2964;42.144;24.730;2024-01-27T10:32:31;144164.13;;;10.37;48.38
5877;BME280;2964;42.144;24.730;2024-01-27T10:35:02;144131.41;;;10.23;48.75
5877;BME280;2964;42.144;24.730;2024-01-27T10:37:29;144089.97;;;10.07;49.72
5877;BME280;2964;42.144;24.730;2024-01-27T10:40:00;144083.69;;;10.04;50.27
5877;BME280;2964;42.144;24.730;2024-01-27T10:42:28;144097.50;;;10.10;50.56
5877;BME280;2964;42.144;24.730;2024-01-27T10:44:57;144151.56;;;10.32;50.16
5877;BME280;2964;42.144;24.730;2024-01-27T10:47:26;144194.22;;;10.49;49.44
5877;BME280;2964;42.144;24.730;2024-01-27T10:49:54;144249.53;;;10.72;49.46
5877;BME280;2964;42.144;24.730;2024-01-27T10:52:23;144302.28;;;10.93;48.83
5877;BME280;2964;42.144;24.730;2024-01-27T10:54:55;144312.34;;;10.97;48.77
5877;BME280;2964;42.144;24.730;2024-01-27T10:57:24;144318.63;;;11.00;48.96
5877;BME280;2964;42.144;24.730;2024-01-27T10:59:53;144371.41;;;11.22;48.66
5877;BME280;2964;42.144;24.730;2024-01-27T11:02:22;144329.91;;;11.05;48.27
5877;BME280;2964;42.144;24.730;2024-01-27T11:04:50;144257.03;;;10.75;49.14
5877;BME280;2964;42.144;24.730;2024-01-27T11:07:19;144332.44;;;11.06;49.09
5877;BME280;2964;42.144;24.730;2024-01-27T11:09:47;144318.63;;;11.00;49.74
5877;BME280;2964;42.144;24.730;2024-01-27T11:12:15;144332.44;;;11.06;49.60
5877;BME280;2964;42.144;24.730;2024-01-27T11:14:42;144356.31;;;11.15;48.66
5877;BME280;2964;42.144;24.730;2024-01-27T11:17:12;144291.00;;;10.89;49.65
5877;BME280;2964;42.144;24.730;2024-01-27T11:19:39;144235.72;;;10.66;50.00
5877;BME280;2964;42.144;24.730;2024-01-27T11:22:06;144220.63;;;10.60;50.68
5877;BME280;2964;42.144;24.730;2024-01-27T11:24:33;144262.06;;;10.77;50.71
5877;BME280;2964;42.144;24.730;2024-01-27T11:27:01;144223.16;;;10.61;51.88
5877;BME280;2964;42.144;24.730;2024-01-27T11:29:28;144179.19;;;10.43;51.31
5877;BME280;2964;42.144;24.730;2024-01-27T11:31:55;144175.41;;;10.41;52.16
5877;BME280;2964;42.144;24.730;2024-01-27T11:34:23;144121.34;;;10.19;53.01
5877;BME280;2964;42.144;24.730;2024-01-27T11:36:50;144117.56;;;10.18;52.54
5877;BME280;2964;42.144;24.730;2024-01-27T11:39:24;144132.69;;;10.24;52.21
5877;BME280;2964;42.144;24.730;2024-01-27T11:41:51;144132.69;;;10.24;52.92
5877;BME280;2964;42.144;24.730;2024-01-27T11:44:18;144159.09;;;10.35;52.81
5877;BME280;2964;42.144;24.730;2024-01-27T11:46:45;144174.16;;;10.41;52.89
5877;BME280;2964;42.144;24.730;2024-01-27T11:49:14;144156.56;;;10.34;53.13
5877;BME280;2964;42.144;24.730;2024-01-27T11:51:43;144105.06;;;10.13;53.21
5877;BME280;2964;42.144;24.730;2024-01-27T11:54:10;144097.50;;;10.10;53.03
5877;BME280;2964;42.144;24.730;2024-01-27T11:56:38;144108.78;;;10.14;53.58
5877;BME280;2964;42.144;24.730;2024-01-27T11:59:05;144146.50;;;10.30;53.58
5877;BME280;2964;42.144;24.730;2024-01-27T12:01:31;144171.63;;;10.40;53.53
5877;BME280;2964;42.144;24.730;2024-01-27T12:03:58;144161.59;;;10.36;53.81
5877;BME280;2964;42.144;24.730;2024-01-27T12:06:25;144131.41;;;10.23;54.53
5877;BME280;2964;42.144;24.730;2024-01-27T12:08:55;144082.47;;;10.03;55.25
5877;BME280;2964;42.144;24.730;2024-01-27T12:11:22;144051.06;;;9.91;55.46
5877;BME280;2964;42.144;24.730;2024-01-27T12:13:49;144048.53;;;9.90;55.62
5877;BME280;2964;42.144;24.730;2024-01-27T12:16:16;144022.16;;;9.79;56.37
5877;BME280;2964;42.144;24.730;2024-01-27T12:18:43;144005.88;;;9.72;57.00
5877;BME280;2964;42.144;24.730;2024-01-27T12:21:10;143999.56;;;9.70;57.30
5877;BME280;2964;42.144;24.730;2024-01-27T12:23:50;143968.19;;;9.57;58.09
5877;BME280;2964;42.144;24.730;2024-01-27T12:26:20;143953.16;;;9.51;58.18
5877;BME280;2964;42.144;24.730;2024-01-27T12:28:49;143938.09;;;9.44;58.54
5877;BME280;2964;42.144;24.730;2024-01-27T12:31:16;143928.03;;;9.40;59.14
5877;BME280;2964;42.144;24.730;2024-01-27T12:33:51;143943.13;;;9.46;58.79
5877;BME280;2964;42.144;24.730;2024-01-27T12:36:18;143933.03;;;9.42;59.22
5877;BME280;2964;42.144;24.730;2024-01-27T12:38:52;143920.53;;;9.37;59.85
5877;BME280;2964;42.144;24.730;2024-01-27T12:41:21;143892.94;;;9.26;60.39
5877;BME280;2964;42.144;24.730;2024-01-27T12:43:47;143833.97;;;9.02;60.63
5877;BME280;2964;42.144;24.730;2024-01-27T12:46:14;143900.44;;;9.29;60.27
5877;BME280;2964;42.144;24.730;2024-01-27T12:48:42;143879.13;;;9.20;60.95
5877;BME280;2964;42.144;24.730;2024-01-27T12:51:08;143872.84;;;9.18;60.65
5877;BME280;2964;42.144;24.730;2024-01-27T12:53:36;143872.84;;;9.18;60.38
5877;BME280;2964;42.144;24.730;2024-01-27T12:56:04;143875.38;;;9.19;60.29
5877;BME280;2964;42.144;24.730;2024-01-27T12:58:32;143850.25;;;9.08;60.59
5877;BME280;2964;42.144;24.730;2024-01-27T13:00:59;143884.16;;;9.22;60.32
5877;BME280;2964;42.144;24.730;2024-01-27T13:03:25;143885.38;;;9.23;60.03
5877;BME280;2964;42.144;24.730;2024-01-27T13:05:53;143885.38;;;9.23;60.24
5877;BME280;2964;42.144;24.730;2024-01-27T13:08:20;143879.13;;;9.20;60.35